Time;durP1;ratioP1;P1;durP2;ratioP2;P2;SDS_P1;SDS_P2;PMS_P1;PMS_P2;Temp;Humidity;BMP_temperature;BMP_pressure;BME280_temperature;BME280_humidity;BME280_pressure;Samples;Min_cycle;Max_cycle;Signal;HPM_P1;HPM_P2
2022/12/30 00:00:05;;;;;;;;;;;6.30;99.90;;;;;;4974086;28;212272;-69
2022/12/30 00:02:31;;;;;;;;;;;6.40;99.90;;;;;;4969416;28;19921;-70
2022/12/30 00:04:57;;;;;;;;;;;6.40;99.90;;;;;;4971202;28;209731;-69
2022/12/30 00:07:23;;;;;;;;;;;6.30;99.90;;;;;;4992233;28;68205;-70
2022/12/30 00:09:50;;;;;;;;;;;6.30;99.90;;;;;;5004808;28;21338;-70
2022/12/30 00:34:21;;;;;;;;;;;6.20;99.90;;;;;;5005466;28;20379;-69
2022/12/30 00:36:47;;;;;;;;;;;6.20;99.90;;;;;;4947264;28;213701;-69
2022/12/30 00:39:13;;;;;;;;;;;6.20;99.90;;;;;;5002759;28;19930;-69
2022/12/30 00:44:23;;;;;;;;;;;6.20;99.90;;;;;;5002314;28;19944;-70
2022/12/30 00:46:49;;;;;;;;;;;6.10;99.90;;;;;;4957740;28;207677;-70
2022/12/30 00:57:29;;;;;;;;;;;6.10;99.90;;;;;;4947220;28;212956;-70
2022/12/30 00:59:55;;;;;;;;;;;6.10;99.90;;;;;;5001559;28;208029;-69
2022/12/30 01:02:21;;;;;;;;;;;6.10;99.90;;;;;;4971941;28;19933;-70
2022/12/30 01:04:47;;;;;;;;;;;6.10;99.90;;;;;;5004106;28;20044;-70
2022/12/30 01:07:13;;;;;;;;;;;6.20;99.90;;;;;;4930550;28;141853;-71
2022/12/30 01:09:39;;;;;;;;;;;6.10;99.90;;;;;;5005119;28;20280;-70
2022/12/30 01:12:08;;;;;;;;;;;6.10;99.90;;;;;;4955351;28;95189;-70
2022/12/30 01:14:39;;;;;;;;;;;6.10;99.90;;;;;;5000089;28;19930;-70
2022/12/30 01:17:08;;;;;;;;;;;6.10;99.90;;;;;;4942856;28;180653;-70
2022/12/30 01:19:34;;;;;;;;;;;6.10;99.90;;;;;;5006025;28;19945;-70
2022/12/30 01:21:59;;;;;;;;;;;6.10;99.90;;;;;;4953984;28;214585;-70
2022/12/30 01:24:26;;;;;;;;;;;6.10;99.90;;;;;;5002582;28;19975;-71
2022/12/30 01:26:51;;;;;;;;;;;6.10;99.90;;;;;;4951481;28;209763;-70
2022/12/30 01:29:26;;;;;;;;;;;6.10;99.90;;;;;;5004373;28;19921;-70
2022/12/30 01:31:55;;;;;;;;;;;6.10;99.90;;;;;;4954563;28;64839;-70
2022/12/30 01:34:21;;;;;;;;;;;6.10;99.90;;;;;;5005643;28;20291;-70
2022/12/30 01:36:47;;;;;;;;;;;6.20;99.90;;;;;;4940910;28;208183;-70
2022/12/30 01:39:13;;;;;;;;;;;6.20;99.90;;;;;;5005082;28;20409;-69
2022/12/30 01:41:39;;;;;;;;;;;6.10;99.90;;;;;;4932684;28;210434;-70
2022/12/30 01:44:24;;;;;;;;;;;6.20;99.90;;;;;;4982523;28;20444;-70
2022/12/30 01:46:50;;;;;;;;;;;6.20;99.90;;;;;;4945823;28;173314;-70
2022/12/30 01:49:16;;;;;;;;;;;6.10;99.90;;;;;;5011862;28;20371;-70
2022/12/30 01:51:42;;;;;;;;;;;6.10;99.90;;;;;;4976710;28;211234;-70
2022/12/30 01:54:08;;;;;;;;;;;6.10;99.90;;;;;;5027894;28;19996;-69
2022/12/30 01:56:35;;;;;;;;;;;6.10;99.90;;;;;;4983715;28;211680;-70
2022/12/30 01:59:05;;;;;;;;;;;6.10;99.90;;;;;;5011789;28;19949;-70
2022/12/30 02:01:33;;;;;;;;;;;6.00;99.90;;;;;;4941452;28;206665;-70
2022/12/30 02:04:01;;;;;;;;;;;6.00;99.90;;;;;;4999213;28;19921;-70
2022/12/30 02:06:33;;;;;;;;;;;6.00;99.90;;;;;;4961212;28;210414;-69
2022/12/30 02:08:59;;;;;;;;;;;6.00;99.90;;;;;;4997793;28;19921;-69
2022/12/30 02:11:26;;;;;;;;;;;5.90;99.90;;;;;;4938064;28;216148;-70
2022/12/30 02:13:52;;;;;;;;;;;5.90;99.90;;;;;;5003191;28;19928;-70
2022/12/30 02:16:26;;;;;;;;;;;5.90;99.90;;;;;;4955402;28;211767;-70
2022/12/30 02:18:52;;;;;;;;;;;5.90;99.90;;;;;;5012099;28;20314;-70
2022/12/30 02:21:32;;;;;;;;;;;5.80;99.90;;;;;;4921168;28;208127;-70
2022/12/30 02:24:07;;;;;;;;;;;5.80;99.90;;;;;;4985270;28;19929;-70
2022/12/30 02:26:45;;;;;;;;;;;5.80;99.90;;;;;;4954906;28;206350;-70
2022/12/30 02:29:14;;;;;;;;;;;5.80;99.90;;;;;;5004236;28;19929;-70
2022/12/30 02:31:48;;;;;;;;;;;5.80;99.90;;;;;;4955106;28;208915;-71
2022/12/30 02:34:33;;;;;;;;;;;5.80;99.90;;;;;;5003062;28;19928;-71
2022/12/30 02:37:07;;;;;;;;;;;5.80;99.90;;;;;;4944428;28;100173;-71
2022/12/30 02:39:33;;;;;;;;;;;5.80;99.90;;;;;;5001271;28;19941;-71
2022/12/30 02:44:54;;;;;;;;;;;5.70;99.90;;;;;;5005736;28;19921;-71
2022/12/30 02:47:25;;;;;;;;;;;5.80;99.90;;;;;;4976765;28;96724;-71
2022/12/30 02:52:39;;;;;;;;;;;5.80;99.90;;;;;;4945379;28;90024;-71
2022/12/30 02:55:07;;;;;;;;;;;5.70;99.90;;;;;;4965691;28;206688;-70
2022/12/30 02:57:33;;;;;;;;;;;5.70;99.90;;;;;;4979499;28;19922;-71
2022/12/30 03:06:10;;;;;;;;;;;5.70;99.90;;;;;;4945969;28;207890;-70
2022/12/30 03:08:42;;;;;;;;;;;5.60;99.90;;;;;;4995172;28;20013;-70
2022/12/30 03:11:15;;;;;;;;;;;5.70;99.90;;;;;;4962183;28;180806;-70
2022/12/30 03:14:00;;;;;;;;;;;5.60;99.90;;;;;;4986200;28;20307;-70
2022/12/30 03:16:29;;;;;;;;;;;5.60;99.90;;;;;;4953803;28;207554;-70
2022/12/30 03:18:57;;;;;;;;;;;5.50;99.90;;;;;;4997364;28;19980;-71
2022/12/30 03:21:25;;;;;;;;;;;5.50;99.90;;;;;;4960585;28;222358;-71
2022/12/30 03:29:25;;;;;;;;;;;5.40;99.90;;;;;;5005166;28;20346;-70
2022/12/30 03:31:52;;;;;;;;;;;5.40;99.90;;;;;;4965172;28;206171;-71
2022/12/30 03:34:18;;;;;;;;;;;5.40;99.90;;;;;;5003453;28;19936;-71
2022/12/30 03:36:46;;;;;;;;;;;5.40;99.90;;;;;;4971489;28;215014;-70
2022/12/30 03:39:17;;;;;;;;;;;5.30;99.90;;;;;;5005231;28;19937;-71
2022/12/30 03:41:46;;;;;;;;;;;5.30;99.90;;;;;;4973736;28;214236;-71
2022/12/30 03:44:12;;;;;;;;;;;5.30;99.90;;;;;;5004819;28;20410;-70
2022/12/30 03:46:40;;;;;;;;;;;5.30;99.90;;;;;;4957735;28;207958;-71
2022/12/30 03:49:06;;;;;;;;;;;5.20;99.90;;;;;;5005741;28;20418;-71
2022/12/30 03:51:32;;;;;;;;;;;5.30;99.90;;;;;;4945517;28;215437;-70
2022/12/30 03:53:58;;;;;;;;;;;5.20;99.90;;;;;;5009194;28;19929;-70
2022/12/30 03:56:24;;;;;;;;;;;5.20;99.90;;;;;;4958946;28;207340;-70
2022/12/30 03:58:50;;;;;;;;;;;5.20;99.90;;;;;;5008866;28;20472;-71
2022/12/30 04:01:16;;;;;;;;;;;5.20;99.90;;;;;;4951414;28;207189;-70
2022/12/30 04:03:41;;;;;;;;;;;5.20;99.90;;;;;;4999651;28;19925;-71
2022/12/30 04:06:07;;;;;;;;;;;5.30;99.90;;;;;;4955678;28;207410;-71
2022/12/30 04:08:33;;;;;;;;;;;5.20;99.90;;;;;;5002999;28;20091;-71
2022/12/30 04:10:59;;;;;;;;;;;5.20;99.90;;;;;;4968005;28;207982;-71
2022/12/30 04:13:26;;;;;;;;;;;5.30;99.90;;;;;;5002535;28;19929;-71
2022/12/30 04:15:52;;;;;;;;;;;5.20;99.90;;;;;;4963469;28;209408;-71
2022/12/30 04:18:18;;;;;;;;;;;5.20;99.90;;;;;;4996665;28;19930;-71
2022/12/30 04:20:45;;;;;;;;;;;5.20;99.90;;;;;;4956380;28;212900;-71
2022/12/30 04:23:10;;;;;;;;;;;5.20;99.90;;;;;;4996317;28;20390;-71
2022/12/30 04:25:36;;;;;;;;;;;5.20;99.90;;;;;;4946832;28;212992;-71
2022/12/30 04:28:03;;;;;;;;;;;5.20;99.90;;;;;;4995484;28;20036;-71
2022/12/30 04:30:29;;;;;;;;;;;5.20;99.90;;;;;;4959869;28;206684;-71
2022/12/30 04:32:55;;;;;;;;;;;5.20;99.90;;;;;;4996650;28;19926;-71
2022/12/30 04:35:20;;;;;;;;;;;5.20;99.90;;;;;;4958583;28;207375;-71
2022/12/30 04:37:47;;;;;;;;;;;5.20;99.90;;;;;;4992091;28;20294;-72
2022/12/30 04:40:13;;;;;;;;;;;5.20;99.90;;;;;;4952934;28;207013;-71
2022/12/30 04:42:39;;;;;;;;;;;5.20;99.90;;;;;;4987547;28;19956;-71
2022/12/30 04:45:06;;;;;;;;;;;5.20;99.90;;;;;;4970783;28;207337;-70
2022/12/30 04:47:32;;;;;;;;;;;5.20;99.90;;;;;;4985960;28;19933;-70
2022/12/30 04:49:57;;;;;;;;;;;5.20;99.90;;;;;;4990284;28;212619;-71
2022/12/30 04:52:23;;;;;;;;;;;5.20;99.90;;;;;;4967968;28;201664;-71
2022/12/30 04:54:49;;;;;;;;;;;5.10;99.90;;;;;;5006969;28;19935;-71
2022/12/30 04:57:15;;;;;;;;;;;5.10;99.90;;;;;;4965440;28;208828;-71
2022/12/30 04:59:41;;;;;;;;;;;5.10;99.90;;;;;;5005699;28;19921;-70
2022/12/30 05:02:07;;;;;;;;;;;5.10;99.90;;;;;;4947311;28;207410;-69
2022/12/30 05:04:33;;;;;;;;;;;5.10;99.90;;;;;;5006197;28;19926;-71
2022/12/30 05:06:59;;;;;;;;;;;5.10;99.90;;;;;;4949955;28;206664;-71
2022/12/30 05:09:25;;;;;;;;;;;5.00;99.90;;;;;;5007776;28;20383;-71
2022/12/30 05:11:51;;;;;;;;;;;5.00;99.90;;;;;;4960956;28;145046;-71
2022/12/30 05:14:17;;;;;;;;;;;5.00;99.90;;;;;;5017471;28;19909;-71
2022/12/30 05:16:43;;;;;;;;;;;5.00;99.90;;;;;;4973323;28;206052;-71
2022/12/30 05:19:09;;;;;;;;;;;5.00;99.90;;;;;;5029232;28;19965;-71
2022/12/30 05:21:35;;;;;;;;;;;5.00;99.90;;;;;;4979298;28;202962;-71
2022/12/30 05:26:45;;;;;;;;;;;4.90;99.90;;;;;;4947480;28;206960;-71
2022/12/30 05:29:11;;;;;;;;;;;4.90;99.90;;;;;;5000590;28;19921;-71
2022/12/30 05:31:37;;;;;;;;;;;4.90;99.90;;;;;;4957432;28;209863;-70
2022/12/30 05:34:03;;;;;;;;;;;4.80;99.90;;;;;;5009158;28;20027;-71
2022/12/30 05:36:29;;;;;;;;;;;4.80;99.90;;;;;;4953053;28;50193;-71
2022/12/30 05:38:55;;;;;;;;;;;4.80;99.90;;;;;;5002100;28;19925;-71
2022/12/30 05:41:21;;;;;;;;;;;4.90;99.90;;;;;;4952122;28;210632;-71
2022/12/30 05:43:47;;;;;;;;;;;4.90;99.90;;;;;;5008705;28;19956;-71
2022/12/30 05:46:14;;;;;;;;;;;4.80;99.90;;;;;;4949019;28;206790;-71
2022/12/30 05:48:39;;;;;;;;;;;4.80;99.90;;;;;;4990826;28;19932;-72
2022/12/30 05:51:06;;;;;;;;;;;4.80;99.90;;;;;;4956228;28;163691;-70
2022/12/30 05:53:32;;;;;;;;;;;4.80;99.90;;;;;;5010787;28;20405;-70
2022/12/30 05:56:02;;;;;;;;;;;4.70;99.90;;;;;;4945687;28;212561;-71
2022/12/30 05:58:28;;;;;;;;;;;4.70;99.90;;;;;;5010227;28;19933;-71
2022/12/30 06:00:58;;;;;;;;;;;4.70;99.90;;;;;;4955165;28;207490;-71
2022/12/30 06:03:24;;;;;;;;;;;4.70;99.90;;;;;;5021457;28;19925;-71
2022/12/30 06:05:56;;;;;;;;;;;4.70;99.90;;;;;;4979961;28;211176;-70
2022/12/30 06:08:22;;;;;;;;;;;4.70;99.90;;;;;;5028000;28;19929;-71
2022/12/30 06:10:48;;;;;;;;;;;4.70;99.90;;;;;;4976786;28;212325;-71
2022/12/30 06:13:14;;;;;;;;;;;4.70;99.90;;;;;;5004833;28;20008;-70
2022/12/30 06:15:40;;;;;;;;;;;4.70;99.90;;;;;;4950278;28;211393;-70
2022/12/30 06:18:06;;;;;;;;;;;4.70;99.90;;;;;;5013044;28;20361;-71
2022/12/30 06:20:34;;;;;;;;;;;4.70;99.90;;;;;;4951045;28;206344;-71
2022/12/30 06:23:00;;;;;;;;;;;4.70;99.90;;;;;;5002361;28;20390;-70
2022/12/30 06:25:26;;;;;;;;;;;4.70;99.90;;;;;;4959168;28;210249;-70
2022/12/30 06:27:52;;;;;;;;;;;4.70;99.90;;;;;;4979176;28;20308;-71
2022/12/30 06:30:18;;;;;;;;;;;4.70;99.90;;;;;;4951714;28;212199;-70
2022/12/30 06:32:44;;;;;;;;;;;4.60;99.90;;;;;;5004353;28;20386;-72
2022/12/30 06:35:10;;;;;;;;;;;4.60;99.90;;;;;;4967089;28;206895;-70
2022/12/30 06:37:36;;;;;;;;;;;4.60;99.90;;;;;;5002046;28;19917;-71
2022/12/30 06:40:02;;;;;;;;;;;4.60;99.90;;;;;;4985231;28;207221;-71
2022/12/30 06:42:28;;;;;;;;;;;4.60;99.90;;;;;;4988162;28;19945;-71
2022/12/30 06:44:54;;;;;;;;;;;4.60;99.90;;;;;;5008439;28;19921;-71
2022/12/30 06:47:20;;;;;;;;;;;4.60;99.90;;;;;;4947919;28;185562;-71
2022/12/30 06:49:46;;;;;;;;;;;4.60;99.90;;;;;;5014474;28;19929;-72
2022/12/30 06:52:12;;;;;;;;;;;4.60;99.90;;;;;;4975336;28;218978;-70
2022/12/30 06:54:38;;;;;;;;;;;4.60;99.90;;;;;;5012843;28;19975;-71
2022/12/30 06:57:04;;;;;;;;;;;4.60;99.90;;;;;;4958902;28;206089;-72
2022/12/30 06:59:30;;;;;;;;;;;4.50;99.90;;;;;;5010263;28;19926;-71
2022/12/30 07:01:56;;;;;;;;;;;4.50;99.90;;;;;;4962683;28;206616;-71
2022/12/30 07:04:22;;;;;;;;;;;4.50;99.90;;;;;;5025640;28;19987;-70
2022/12/30 07:06:48;;;;;;;;;;;4.50;99.90;;;;;;4969921;28;198856;-70
2022/12/30 07:09:14;;;;;;;;;;;4.50;99.90;;;;;;5014483;28;19975;-72
2022/12/30 07:11:39;;;;;;;;;;;4.50;99.90;;;;;;4961014;28;141755;-70
2022/12/30 07:14:05;;;;;;;;;;;4.50;99.90;;;;;;5008743;28;19921;-71
2022/12/30 07:16:31;;;;;;;;;;;4.50;99.90;;;;;;4956762;28;206896;-71
2022/12/30 07:18:57;;;;;;;;;;;4.50;99.90;;;;;;5002951;28;19925;-70
2022/12/30 07:21:23;;;;;;;;;;;4.40;99.90;;;;;;4968867;28;213748;-70
2022/12/30 07:23:49;;;;;;;;;;;4.40;99.90;;;;;;5012485;28;19921;-71
2022/12/30 07:26:15;;;;;;;;;;;4.40;99.90;;;;;;4955986;28;212701;-71
2022/12/30 07:28:41;;;;;;;;;;;4.40;99.90;;;;;;5005906;28;19936;-71
2022/12/30 07:31:07;;;;;;;;;;;4.40;99.90;;;;;;4951832;28;207522;-70
2022/12/30 07:33:33;;;;;;;;;;;4.40;99.90;;;;;;5011331;28;20265;-71
2022/12/30 07:35:59;;;;;;;;;;;4.40;99.90;;;;;;4955330;28;143660;-71
2022/12/30 07:38:25;;;;;;;;;;;4.40;99.90;;;;;;5015025;28;20792;-71
2022/12/30 07:40:50;;;;;;;;;;;4.50;99.90;;;;;;4958006;28;212711;-71
2022/12/30 07:43:16;;;;;;;;;;;4.40;99.90;;;;;;4991613;28;19943;-70
2022/12/30 07:45:42;;;;;;;;;;;4.40;99.90;;;;;;4956469;28;206906;-71
2022/12/30 07:48:08;;;;;;;;;;;4.50;99.90;;;;;;5005540;28;19933;-71
2022/12/30 07:50:37;;;;;;;;;;;4.50;99.90;;;;;;4955278;28;209604;-71
2022/12/30 07:53:03;;;;;;;;;;;4.50;99.90;;;;;;4995332;28;20005;-71
2022/12/30 07:55:29;;;;;;;;;;;4.50;99.90;;;;;;4972081;28;60907;-70
2022/12/30 07:57:55;;;;;;;;;;;4.50;99.90;;;;;;5014094;28;20611;-71
2022/12/30 08:00:22;;;;;;;;;;;4.50;99.90;;;;;;4963360;28;97637;-72
2022/12/30 08:02:48;;;;;;;;;;;4.50;99.90;;;;;;5014783;28;19941;-71
2022/12/30 08:05:14;;;;;;;;;;;4.50;99.90;;;;;;4968166;28;210422;-70
2022/12/30 08:07:40;;;;;;;;;;;4.50;99.90;;;;;;5018175;28;19925;-70
2022/12/30 08:10:06;;;;;;;;;;;4.50;99.90;;;;;;4957731;28;212360;-71
2022/12/30 08:12:33;;;;;;;;;;;4.50;99.90;;;;;;4967600;28;19922;-70
2022/12/30 08:14:59;;;;;;;;;;;4.60;99.90;;;;;;4992553;28;209272;-71
2022/12/30 08:17:26;;;;;;;;;;;4.60;99.90;;;;;;4954415;28;123739;-71
2022/12/30 08:19:52;;;;;;;;;;;4.60;99.90;;;;;;5007697;28;19929;-71
2022/12/30 08:22:18;;;;;;;;;;;4.60;99.90;;;;;;4946798;28;144210;-71
2022/12/30 08:24:44;;;;;;;;;;;4.60;99.90;;;;;;4991177;28;19922;-71
2022/12/30 08:27:10;;;;;;;;;;;4.70;99.90;;;;;;4956850;28;207703;-71
2022/12/30 08:29:36;;;;;;;;;;;4.70;99.90;;;;;;5011626;28;19928;-71
2022/12/30 08:32:02;;;;;;;;;;;4.70;99.90;;;;;;4959395;28;212741;-71
2022/12/30 08:34:28;;;;;;;;;;;4.70;99.90;;;;;;5013702;28;20354;-71
2022/12/30 08:36:53;;;;;;;;;;;4.80;99.90;;;;;;4968679;28;207423;-71
2022/12/30 08:39:19;;;;;;;;;;;4.80;99.90;;;;;;5007867;28;19941;-72
2022/12/30 08:41:48;;;;;;;;;;;4.80;99.90;;;;;;4952935;28;44783;-72
2022/12/30 08:44:14;;;;;;;;;;;4.80;99.90;;;;;;5004696;28;20025;-70
2022/12/30 08:46:41;;;;;;;;;;;4.80;99.90;;;;;;4949018;28;210882;-70
2022/12/30 08:49:07;;;;;;;;;;;4.80;99.90;;;;;;5006560;28;19937;-70
2022/12/30 08:51:33;;;;;;;;;;;4.90;99.90;;;;;;4962486;28;206803;-71
2022/12/30 08:53:59;;;;;;;;;;;4.90;99.90;;;;;;5013631;28;19945;-71
2022/12/30 08:56:29;;;;;;;;;;;4.90;99.90;;;;;;4952254;28;207862;-71
2022/12/30 08:58:56;;;;;;;;;;;4.90;99.90;;;;;;4994888;28;20395;-71
2022/12/30 09:01:26;;;;;;;;;;;5.00;99.90;;;;;;4941444;28;212222;-71
2022/12/30 09:03:52;;;;;;;;;;;5.00;99.90;;;;;;5011694;28;19922;-72
2022/12/30 09:06:19;;;;;;;;;;;5.00;99.90;;;;;;4958560;28;208280;-72
2022/12/30 09:08:45;;;;;;;;;;;5.10;99.90;;;;;;4997014;28;19932;-71
2022/12/30 09:11:12;;;;;;;;;;;5.10;99.90;;;;;;4958535;28;114025;-70
2022/12/30 09:13:39;;;;;;;;;;;5.10;99.90;;;;;;5009368;28;19929;-71
2022/12/30 09:16:06;;;;;;;;;;;5.10;99.90;;;;;;4940494;28;105967;-71
2022/12/30 09:18:32;;;;;;;;;;;5.10;99.90;;;;;;4999948;28;20328;-72
2022/12/30 09:20:58;;;;;;;;;;;5.20;99.90;;;;;;4946364;28;208396;-71
2022/12/30 09:23:24;;;;;;;;;;;5.20;99.90;;;;;;4992750;28;19926;-71
2022/12/30 09:25:50;;;;;;;;;;;5.30;99.90;;;;;;4947037;28;203864;-72
2022/12/30 09:28:16;;;;;;;;;;;5.30;99.90;;;;;;4972946;28;19944;-71
2022/12/30 09:30:42;;;;;;;;;;;5.40;99.90;;;;;;4948391;28;188665;-71
2022/12/30 09:33:08;;;;;;;;;;;5.40;99.90;;;;;;4987414;28;19984;-71
2022/12/30 09:35:34;;;;;;;;;;;5.40;99.90;;;;;;4946246;28;207416;-71
2022/12/30 09:38:00;;;;;;;;;;;5.40;99.90;;;;;;4979408;28;20406;-71
2022/12/30 09:40:32;;;;;;;;;;;5.50;99.90;;;;;;4942570;28;69512;-72
2022/12/30 09:43:17;;;;;;;;;;;5.50;99.90;;;;;;4990232;28;20655;-72
2022/12/30 09:46:02;;;;;;;;;;;5.60;99.90;;;;;;4950004;28;206304;-71
2022/12/30 09:48:33;;;;;;;;;;;5.60;99.90;;;;;;4980248;28;19925;-71
2022/12/30 09:51:01;;;;;;;;;;;5.60;99.90;;;;;;4997601;28;19926;-71
2022/12/30 09:53:31;;;;;;;;;;;5.70;99.90;;;;;;5009852;28;19925;-71
2022/12/30 09:55:59;;;;;;;;;;;5.70;99.90;;;;;;4999487;28;20315;-71
2022/12/30 09:58:33;;;;;;;;;;;5.80;99.90;;;;;;4919933;28;208763;-72
2022/12/30 10:01:07;;;;;;;;;;;5.80;99.90;;;;;;5003536;28;19934;-71
2022/12/30 10:03:33;;;;;;;;;;;5.90;99.90;;;;;;4943897;28;100044;-71
2022/12/30 10:06:08;;;;;;;;;;;5.90;99.90;;;;;;5001817;28;19937;-71
2022/12/30 10:08:40;;;;;;;;;;;5.90;99.90;;;;;;4953744;28;210405;-72
2022/12/30 10:11:30;;;;;;;;;;;6.00;99.90;;;;;;5007533;28;19921;-72
2022/12/30 10:13:59;;;;;;;;;;;6.10;99.90;;;;;;4917033;28;206164;-72
2022/12/30 10:16:45;;;;;;;;;;;6.00;99.90;;;;;;5003688;28;20386;-71
2022/12/30 10:19:28;;;;;;;;;;;6.10;99.90;;;;;;4909884;28;203088;-72
2022/12/30 10:22:04;;;;;;;;;;;6.20;99.90;;;;;;4939052;28;224943;-72
2022/12/30 10:24:30;;;;;;;;;;;6.20;99.90;;;;;;4994959;28;19941;-71
2022/12/30 10:26:57;;;;;;;;;;;6.30;99.90;;;;;;4942447;28;219015;-71
2022/12/30 10:29:23;;;;;;;;;;;6.30;99.90;;;;;;4991370;28;20307;-72
2022/12/30 10:31:50;;;;;;;;;;;6.40;99.90;;;;;;4923461;28;207690;-72
2022/12/30 10:34:18;;;;;;;;;;;6.40;99.90;;;;;;4981021;28;19922;-71
2022/12/30 10:36:48;;;;;;;;;;;6.50;99.90;;;;;;4953937;28;211772;-72
2022/12/30 10:39:16;;;;;;;;;;;6.50;99.90;;;;;;4979983;28;19926;-70
2022/12/30 10:42:00;;;;;;;;;;;6.50;99.90;;;;;;4971386;28;207679;-72
2022/12/30 10:44:41;;;;;;;;;;;6.60;99.90;;;;;;4962963;28;120960;-72
2022/12/30 10:47:07;;;;;;;;;;;6.60;99.90;;;;;;4944670;28;207718;-72
2022/12/30 10:49:39;;;;;;;;;;;6.60;99.90;;;;;;4995252;28;19932;-73
2022/12/30 10:52:07;;;;;;;;;;;6.70;99.90;;;;;;4959323;28;206777;-72
2022/12/30 10:54:35;;;;;;;;;;;6.70;99.90;;;;;;4997502;28;19941;-69
2022/12/30 10:57:01;;;;;;;;;;;6.70;99.90;;;;;;4939716;28;210294;-72
2022/12/30 10:59:28;;;;;;;;;;;6.70;99.90;;;;;;4983373;28;19930;-71
2022/12/30 11:02:09;;;;;;;;;;;6.70;99.90;;;;;;4935303;28;214466;-71
2022/12/30 11:04:37;;;;;;;;;;;6.80;99.90;;;;;;4971730;28;19922;-72
2022/12/30 11:07:04;;;;;;;;;;;6.80;99.90;;;;;;4952141;28;215621;-71
2022/12/30 11:09:30;;;;;;;;;;;6.90;99.90;;;;;;4991420;28;20328;-71
2022/12/30 11:15:06;;;;;;;;;;;6.90;99.90;;;;;;4990008;28;19929;-72
2022/12/30 11:17:45;;;;;;;;;;;6.90;99.90;;;;;;4955463;28;37286;-70
2022/12/30 11:20:14;;;;;;;;;;;7.00;99.90;;;;;;4994286;28;19926;-70
2022/12/30 11:22:47;;;;;;;;;;;7.00;99.90;;;;;;4939673;28;206339;-71
2022/12/30 11:25:36;;;;;;;;;;;7.00;99.90;;;;;;4995192;28;19926;-71
2022/12/30 11:28:06;;;;;;;;;;;7.10;99.90;;;;;;4931919;28;207010;-71
2022/12/30 11:30:34;;;;;;;;;;;7.10;99.90;;;;;;5000502;28;19925;-70
2022/12/30 11:33:05;;;;;;;;;;;7.20;99.90;;;;;;4946862;28;211410;-70
2022/12/30 11:35:45;;;;;;;;;;;7.20;99.90;;;;;;4999420;28;19930;-70
2022/12/30 11:38:27;;;;;;;;;;;7.20;99.90;;;;;;4959278;28;207329;-72
2022/12/30 11:40:53;;;;;;;;;;;7.20;99.90;;;;;;5009729;28;19925;-70
2022/12/30 11:43:20;;;;;;;;;;;7.30;99.90;;;;;;4941538;28;19934;-70
2022/12/30 11:45:51;;;;;;;;;;;7.30;99.90;;;;;;5008820;28;19928;-71
2022/12/30 11:48:23;;;;;;;;;;;7.30;99.90;;;;;;4970502;28;210979;-70
2022/12/30 11:50:51;;;;;;;;;;;7.30;99.90;;;;;;5005074;28;19936;-70
2022/12/30 11:53:18;;;;;;;;;;;7.40;99.90;;;;;;4957892;28;207310;-71
2022/12/30 11:55:49;;;;;;;;;;;7.40;99.90;;;;;;5008399;28;19925;-69
2022/12/30 11:58:15;;;;;;;;;;;7.40;99.90;;;;;;4948735;28;150408;-70
2022/12/30 12:00:41;;;;;;;;;;;7.40;99.90;;;;;;5000509;28;20387;-71
2022/12/30 12:03:14;;;;;;;;;;;7.50;99.90;;;;;;4947123;28;216387;-71
2022/12/30 12:05:42;;;;;;;;;;;7.50;99.90;;;;;;4998887;28;19932;-70
2022/12/30 12:08:17;;;;;;;;;;;7.50;99.90;;;;;;4948582;28;235081;-71
2022/12/30 12:10:46;;;;;;;;;;;7.60;99.90;;;;;;4998102;28;20382;-70
2022/12/30 12:13:21;;;;;;;;;;;7.60;99.90;;;;;;4927410;28;215061;-69
2022/12/30 12:15:51;;;;;;;;;;;7.60;99.90;;;;;;4986236;28;20314;-70
2022/12/30 12:18:28;;;;;;;;;;;7.60;99.90;;;;;;4945341;28;208416;-70
2022/12/30 12:21:14;;;;;;;;;;;7.60;99.90;;;;;;4986121;28;20414;-70
2022/12/30 12:23:49;;;;;;;;;;;7.60;99.90;;;;;;4937735;28;211016;-70
2022/12/30 12:26:26;;;;;;;;;;;7.70;99.90;;;;;;4985915;28;19926;-70
2022/12/30 12:28:52;;;;;;;;;;;7.70;99.90;;;;;;4923995;28;221953;-70
2022/12/30 12:31:36;;;;;;;;;;;7.70;99.90;;;;;;4981196;28;19933;-70
2022/12/30 12:34:12;;;;;;;;;;;7.70;99.90;;;;;;4912364;28;223902;-70
2022/12/30 12:36:56;;;;;;;;;;;7.80;99.90;;;;;;4966413;28;203802;-70
2022/12/30 12:39:45;;;;;;;;;;;7.80;99.90;;;;;;4920313;28;83233;-69
2022/12/30 12:42:12;;;;;;;;;;;7.80;99.90;;;;;;4936833;28;206473;-69
2022/12/30 12:44:47;;;;;;;;;;;7.80;99.90;;;;;;4986164;28;19932;-69
2022/12/30 12:47:32;;;;;;;;;;;7.90;99.90;;;;;;4929097;28;239764;-70
2022/12/30 12:50:04;;;;;;;;;;;7.90;99.90;;;;;;4964941;28;19921;-71
2022/12/30 12:52:48;;;;;;;;;;;7.90;99.90;;;;;;4917577;28;193419;-70
2022/12/30 12:55:29;;;;;;;;;;;8.00;99.90;;;;;;4972330;28;19928;-70
2022/12/30 12:58:04;;;;;;;;;;;8.00;99.90;;;;;;4931023;28;90277;-70
2022/12/30 13:00:53;;;;;;;;;;;8.00;99.90;;;;;;4985019;28;19922;-70
2022/12/30 13:03:30;;;;;;;;;;;8.00;99.90;;;;;;4921930;28;207822;-69
2022/12/30 13:05:59;;;;;;;;;;;8.00;99.90;;;;;;4981892;28;19945;-71
2022/12/30 13:08:44;;;;;;;;;;;8.10;99.90;;;;;;4916707;28;212462;-69
2022/12/30 13:11:28;;;;;;;;;;;8.10;99.90;;;;;;4983247;28;21222;-70
2022/12/30 13:14:18;;;;;;;;;;;8.10;99.90;;;;;;4938683;28;208032;-70
2022/12/30 13:16:50;;;;;;;;;;;8.10;99.90;;;;;;4939244;28;207494;-70
2022/12/30 13:19:17;;;;;;;;;;;8.10;99.90;;;;;;4979805;28;20321;-71
2022/12/30 13:21:45;;;;;;;;;;;8.20;99.90;;;;;;4946672;28;212907;-71
2022/12/30 13:24:14;;;;;;;;;;;8.20;99.90;;;;;;4981848;28;20429;-73
2022/12/30 13:26:41;;;;;;;;;;;8.20;99.90;;;;;;4961000;28;226817;-68
2022/12/30 13:29:07;;;;;;;;;;;8.30;99.90;;;;;;4955694;28;206790;-71
2022/12/30 13:31:50;;;;;;;;;;;8.30;99.90;;;;;;4984102;28;20414;-71
2022/12/30 13:34:40;;;;;;;;;;;8.30;99.90;;;;;;4917895;28;212692;-70
2022/12/30 13:37:15;;;;;;;;;;;8.30;99.90;;;;;;4933222;28;205212;-73
2022/12/30 13:39:47;;;;;;;;;;;8.30;99.90;;;;;;4993931;28;20375;-71
2022/12/30 13:42:13;;;;;;;;;;;8.40;99.90;;;;;;4935371;28;206483;-69
2022/12/30 13:44:41;;;;;;;;;;;8.40;99.90;;;;;;4994050;28;19981;-70
2022/12/30 13:47:39;;;;;;;;;;;8.40;99.90;;;;;;4935677;28;210595;-71
2022/12/30 13:50:17;;;;;;;;;;;8.40;99.90;;;;;;4950488;28;19926;-70
2022/12/30 13:52:45;;;;;;;;;;;8.40;99.90;;;;;;4914790;28;254003;-72
2022/12/30 13:55:19;;;;;;;;;;;8.50;99.90;;;;;;4978773;28;19932;-69
2022/12/30 13:57:47;;;;;;;;;;;8.60;99.90;;;;;;4939093;28;208099;-71
2022/12/30 14:00:18;;;;;;;;;;;8.60;99.90;;;;;;4966479;28;19926;-70
2022/12/30 14:02:46;;;;;;;;;;;8.60;99.90;;;;;;4924961;28;206881;-70
2022/12/30 14:05:31;;;;;;;;;;;8.60;99.90;;;;;;4982215;28;19933;-71
2022/12/30 14:07:58;;;;;;;;;;;8.60;99.90;;;;;;4922131;28;209066;-70
2022/12/30 14:10:39;;;;;;;;;;;8.70;99.90;;;;;;4984200;28;19926;-70
2022/12/30 14:13:16;;;;;;;;;;;8.70;99.90;;;;;;4941000;28;206286;-69
2022/12/30 14:15:42;;;;;;;;;;;8.70;99.90;;;;;;4999174;28;19926;-71
2022/12/30 14:18:27;;;;;;;;;;;8.70;99.90;;;;;;4940189;28;207726;-70
2022/12/30 14:20:57;;;;;;;;;;;8.70;99.90;;;;;;4996344;28;19925;-72
2022/12/30 14:23:37;;;;;;;;;;;8.70;99.90;;;;;;4932453;28;207599;-71
2022/12/30 14:26:18;;;;;;;;;;;8.70;99.90;;;;;;5000047;28;19926;-72
2022/12/30 14:28:47;;;;;;;;;;;8.60;99.90;;;;;;4954244;28;179565;-71
2022/12/30 14:31:26;;;;;;;;;;;8.60;99.90;;;;;;5004205;28;20311;-70
2022/12/30 14:33:52;;;;;;;;;;;8.60;99.90;;;;;;4921556;28;223341;-71
2022/12/30 14:36:20;;;;;;;;;;;8.60;99.90;;;;;;5007272;28;19925;-70
2022/12/30 14:38:46;;;;;;;;;;;8.50;99.90;;;;;;4931744;28;214196;-70
2022/12/30 14:41:15;;;;;;;;;;;8.50;99.90;;;;;;5003803;28;20028;-71
2022/12/30 14:43:59;;;;;;;;;;;8.50;99.90;;;;;;4938931;28;206973;-72
2022/12/30 14:46:31;;;;;;;;;;;8.60;99.90;;;;;;5002192;28;19925;-73
2022/12/30 14:48:58;;;;;;;;;;;8.60;99.90;;;;;;4935394;28;207663;-70
2022/12/30 14:51:24;;;;;;;;;;;8.50;99.90;;;;;;4991856;28;19940;-71
2022/12/30 14:53:50;;;;;;;;;;;8.50;99.90;;;;;;4937796;28;53873;-71
2022/12/30 14:56:17;;;;;;;;;;;8.40;99.90;;;;;;5008746;28;20000;-72
2022/12/30 14:58:43;;;;;;;;;;;8.40;99.90;;;;;;4945297;28;208676;-72
2022/12/30 15:01:12;;;;;;;;;;;8.30;99.90;;;;;;5017537;28;19922;-71
2022/12/30 15:03:38;;;;;;;;;;;8.30;99.90;;;;;;4930162;28;206552;-74
2022/12/30 15:06:04;;;;;;;;;;;8.20;99.90;;;;;;5005994;28;19928;-72
2022/12/30 15:08:35;;;;;;;;;;;8.20;99.90;;;;;;4954530;28;90876;-72
2022/12/30 15:11:14;;;;;;;;;;;8.20;99.90;;;;;;5010927;28;20351;-72
2022/12/30 15:13:42;;;;;;;;;;;8.20;99.90;;;;;;4931089;28;205143;-71
2022/12/30 15:16:13;;;;;;;;;;;8.20;99.90;;;;;;5001409;28;19948;-72
2022/12/30 15:18:58;;;;;;;;;;;8.20;99.90;;;;;;4958845;28;63989;-72
2022/12/30 15:21:30;;;;;;;;;;;8.20;99.90;;;;;;5007544;28;19948;-72
2022/12/30 15:23:57;;;;;;;;;;;8.20;99.90;;;;;;4938085;28;221823;-72
2022/12/30 15:26:24;;;;;;;;;;;8.20;99.90;;;;;;4989325;28;20668;-70
2022/12/30 15:28:51;;;;;;;;;;;8.20;99.90;;;;;;4934731;28;65679;-71
2022/12/30 15:31:18;;;;;;;;;;;8.20;99.90;;;;;;5005304;28;19937;-71